Terminal Aerodrome Forecast
Issued by NWS

Home | Current Version | Previous Version | Text Only | Print | Product List | Glossary On
Versions: 1 2 3 4 5 6 7 8 9 10 11 12 13 14 15
000
FTUS45 KFGZ 301136
TAFGCN
TAF
KGCN 301136Z 3012/3112 VRB03KT P6SM FEW080 SCT250
     FM301800 06008KT P6SM SCT070 BKN120
      TEMPO 3020/3024 VRB15G25KT 5SM TSRA BKN070CB
     FM310200 VRB04KT P6SM SCT080 SCT250=

USA.gov is the U.S. government's official web portal to all federal, state and local government web resources and services.